sensor_id;sensor_type;location;lat;lon;timestamp;temperature;humidity
25688;DHT22;17407;51.120;3.702;2023-12-04T00:00:16;4.50;99.90
25688;DHT22;17407;51.120;3.702;2023-12-04T00:02:42;4.50;99.90
25688;DHT22;17407;51.120;3.702;2023-12-04T00:05:07;4.40;99.90
25688;DHT22;17407;51.120;3.702;2023-12-04T00:07:33;4.50;99.90
25688;DHT22;17407;51.120;3.702;2023-12-04T00:09:59;4.50;99.90
25688;DHT22;17407;51.120;3.702;2023-12-04T00:12:24;4.60;99.90
25688;DHT22;17407;51.120;3.702;2023-12-04T00:14:50;4.40;99.90
25688;DHT22;17407;51.120;3.702;2023-12-04T00:17:16;4.40;99.90
25688;DHT22;17407;51.120;3.702;2023-12-04T00:19:42;4.40;99.90
25688;DHT22;17407;51.120;3.702;2023-12-04T00:22:07;4.40;99.90
25688;DHT22;17407;51.120;3.702;2023-12-04T00:24:33;4.40;99.90
25688;DHT22;17407;51.120;3.702;2023-12-04T00:26:59;4.50;99.90
25688;DHT22;17407;51.120;3.702;2023-12-04T00:29:24;4.50;99.90
25688;DHT22;17407;51.120;3.702;2023-12-04T00:31:50;4.40;99.90
25688;DHT22;17407;51.120;3.702;2023-12-04T00:34:16;4.40;99.90
25688;DHT22;17407;51.120;3.702;2023-12-04T00:36:41;4.50;99.90
25688;DHT22;17407;51.120;3.702;2023-12-04T00:39:07;4.50;99.90
25688;DHT22;17407;51.120;3.702;2023-12-04T00:41:33;4.50;99.90
25688;DHT22;17407;51.120;3.702;2023-12-04T00:43:59;4.60;99.90
25688;DHT22;17407;51.120;3.702;2023-12-04T00:46:25;4.50;99.90
25688;DHT22;17407;51.120;3.702;2023-12-04T00:48:51;4.50;99.90
25688;DHT22;17407;51.120;3.702;2023-12-04T00:51:16;4.60;99.90
25688;DHT22;17407;51.120;3.702;2023-12-04T00:53:42;4.50;99.90
25688;DHT22;17407;51.120;3.702;2023-12-04T00:56:08;4.50;99.90
25688;DHT22;17407;51.120;3.702;2023-12-04T00:58:34;4.50;99.90
25688;DHT22;17407;51.120;3.702;2023-12-04T01:01:00;4.50;99.90
25688;DHT22;17407;51.120;3.702;2023-12-04T01:03:26;4.50;99.90
25688;DHT22;17407;51.120;3.702;2023-12-04T01:05:52;4.50;99.90
25688;DHT22;17407;51.120;3.702;2023-12-04T01:08:17;4.50;99.90
25688;DHT22;17407;51.120;3.702;2023-12-04T01:10:43;4.50;99.90
25688;DHT22;17407;51.120;3.702;2023-12-04T01:13:09;4.50;99.90
25688;DHT22;17407;51.120;3.702;2023-12-04T01:15:34;4.50;99.90
25688;DHT22;17407;51.120;3.702;2023-12-04T01:18:00;4.50;99.90
25688;DHT22;17407;51.120;3.702;2023-12-04T01:20:27;4.50;99.90
25688;DHT22;17407;51.120;3.702;2023-12-04T01:22:52;4.50;99.90
25688;DHT22;17407;51.120;3.702;2023-12-04T01:25:18;4.50;99.90
25688;DHT22;17407;51.120;3.702;2023-12-04T01:27:44;4.50;99.90
25688;DHT22;17407;51.120;3.702;2023-12-04T01:30:10;4.50;99.90
25688;DHT22;17407;51.120;3.702;2023-12-04T01:32:36;4.50;99.90
25688;DHT22;17407;51.120;3.702;2023-12-04T01:35:02;4.50;99.90
25688;DHT22;17407;51.120;3.702;2023-12-04T01:37:28;4.50;99.90
25688;DHT22;17407;51.120;3.702;2023-12-04T01:39:53;4.60;99.90
25688;DHT22;17407;51.120;3.702;2023-12-04T01:42:19;4.60;99.90
25688;DHT22;17407;51.120;3.702;2023-12-04T01:44:45;4.70;99.90
25688;DHT22;17407;51.120;3.702;2023-12-04T01:47:11;4.70;99.90
25688;DHT22;17407;51.120;3.702;2023-12-04T01:49:37;4.60;99.90
25688;DHT22;17407;51.120;3.702;2023-12-04T01:52:04;4.50;99.90
25688;DHT22;17407;51.120;3.702;2023-12-04T01:54:30;4.60;99.90
25688;DHT22;17407;51.120;3.702;2023-12-04T01:56:56;4.60;99.90
25688;DHT22;17407;51.120;3.702;2023-12-04T01:59:22;4.50;99.90
25688;DHT22;17407;51.120;3.702;2023-12-04T02:01:48;4.60;99.90
25688;DHT22;17407;51.120;3.702;2023-12-04T02:04:14;4.60;99.90
25688;DHT22;17407;51.120;3.702;2023-12-04T02:06:40;4.60;99.90
25688;DHT22;17407;51.120;3.702;2023-12-04T02:09:06;4.60;99.90
25688;DHT22;17407;51.120;3.702;2023-12-04T02:11:35;4.70;99.90
25688;DHT22;17407;51.120;3.702;2023-12-04T02:14:00;4.70;99.90
25688;DHT22;17407;51.120;3.702;2023-12-04T02:16:27;4.70;99.90
25688;DHT22;17407;51.120;3.702;2023-12-04T02:18:54;4.70;99.90
25688;DHT22;17407;51.120;3.702;2023-12-04T02:21:20;4.60;99.90
25688;DHT22;17407;51.120;3.702;2023-12-04T02:23:50;4.70;99.90
25688;DHT22;17407;51.120;3.702;2023-12-04T02:26:18;4.70;99.90
25688;DHT22;17407;51.120;3.702;2023-12-04T02:28:52;4.70;99.90
25688;DHT22;17407;51.120;3.702;2023-12-04T02:31:20;4.70;99.90
25688;DHT22;17407;51.120;3.702;2023-12-04T02:33:52;4.70;99.90
25688;DHT22;17407;51.120;3.702;2023-12-04T02:36:19;4.60;99.90
25688;DHT22;17407;51.120;3.702;2023-12-04T02:38:46;4.70;99.90
25688;DHT22;17407;51.120;3.702;2023-12-04T02:41:12;4.70;99.90
25688;DHT22;17407;51.120;3.702;2023-12-04T02:43:37;4.70;99.90
25688;DHT22;17407;51.120;3.702;2023-12-04T02:46:03;4.80;99.90
25688;DHT22;17407;51.120;3.702;2023-12-04T02:48:29;4.80;99.90
25688;DHT22;17407;51.120;3.702;2023-12-04T02:50:55;4.70;99.90
25688;DHT22;17407;51.120;3.702;2023-12-04T02:53:20;4.70;99.90
25688;DHT22;17407;51.120;3.702;2023-12-04T02:55:46;4.70;99.90
25688;DHT22;17407;51.120;3.702;2023-12-04T02:58:11;4.70;99.90
25688;DHT22;17407;51.120;3.702;2023-12-04T03:00:37;4.80;99.90
25688;DHT22;17407;51.120;3.702;2023-12-04T03:03:02;4.70;99.90
25688;DHT22;17407;51.120;3.702;2023-12-04T03:05:28;4.80;99.90
25688;DHT22;17407;51.120;3.702;2023-12-04T03:07:54;4.70;99.90
25688;DHT22;17407;51.120;3.702;2023-12-04T03:10:19;4.80;99.90
25688;DHT22;17407;51.120;3.702;2023-12-04T03:12:45;4.70;99.90
25688;DHT22;17407;51.120;3.702;2023-12-04T03:15:11;4.70;99.90
25688;DHT22;17407;51.120;3.702;2023-12-04T03:17:38;4.70;99.90
25688;DHT22;17407;51.120;3.702;2023-12-04T03:20:04;4.80;99.90
25688;DHT22;17407;51.120;3.702;2023-12-04T03:22:31;4.80;99.90
25688;DHT22;17407;51.120;3.702;2023-12-04T03:24:57;4.70;99.90
25688;DHT22;17407;51.120;3.702;2023-12-04T03:27:23;4.90;99.90
25688;DHT22;17407;51.120;3.702;2023-12-04T03:29:48;4.80;99.90
25688;DHT22;17407;51.120;3.702;2023-12-04T03:32:14;4.70;99.90
25688;DHT22;17407;51.120;3.702;2023-12-04T03:34:39;4.70;99.90
25688;DHT22;17407;51.120;3.702;2023-12-04T03:37:06;4.80;99.90
25688;DHT22;17407;51.120;3.702;2023-12-04T03:39:31;4.80;99.90
25688;DHT22;17407;51.120;3.702;2023-12-04T03:41:57;4.80;99.90
25688;DHT22;17407;51.120;3.702;2023-12-04T03:44:23;4.80;99.90
25688;DHT22;17407;51.120;3.702;2023-12-04T03:46:48;4.90;99.90
25688;DHT22;17407;51.120;3.702;2023-12-04T03:49:14;4.80;99.90
25688;DHT22;17407;51.120;3.702;2023-12-04T03:51:40;4.90;99.90
25688;DHT22;17407;51.120;3.702;2023-12-04T03:54:05;4.80;99.90
25688;DHT22;17407;51.120;3.702;2023-12-04T03:56:31;4.80;99.90
25688;DHT22;17407;51.120;3.702;2023-12-04T03:58:57;4.80;99.90
25688;DHT22;17407;51.120;3.702;2023-12-04T04:01:23;4.80;99.90
25688;DHT22;17407;51.120;3.702;2023-12-04T04:03:48;4.80;99.90
25688;DHT22;17407;51.120;3.702;2023-12-04T04:06:14;4.80;99.90
25688;DHT22;17407;51.120;3.702;2023-12-04T04:08:40;4.80;99.90
25688;DHT22;17407;51.120;3.702;2023-12-04T04:11:05;4.70;99.90
25688;DHT22;17407;51.120;3.702;2023-12-04T04:13:31;4.80;99.90
25688;DHT22;17407;51.120;3.702;2023-12-04T04:15:57;4.70;99.90
25688;DHT22;17407;51.120;3.702;2023-12-04T04:18:22;4.70;99.90
25688;DHT22;17407;51.120;3.702;2023-12-04T04:20:48;4.80;99.90
25688;DHT22;17407;51.120;3.702;2023-12-04T04:23:13;4.90;99.90
25688;DHT22;17407;51.120;3.702;2023-12-04T04:25:39;4.80;99.90
25688;DHT22;17407;51.120;3.702;2023-12-04T04:28:05;4.80;99.90
25688;DHT22;17407;51.120;3.702;2023-12-04T04:30:30;4.80;99.90
25688;DHT22;17407;51.120;3.702;2023-12-04T04:32:56;4.80;99.90
25688;DHT22;17407;51.120;3.702;2023-12-04T04:35:22;4.80;99.90
25688;DHT22;17407;51.120;3.702;2023-12-04T04:37:47;4.80;99.90
25688;DHT22;17407;51.120;3.702;2023-12-04T04:40:13;4.80;99.90
25688;DHT22;17407;51.120;3.702;2023-12-04T04:42:39;4.80;99.90
25688;DHT22;17407;51.120;3.702;2023-12-04T04:45:05;4.90;99.90
25688;DHT22;17407;51.120;3.702;2023-12-04T04:47:30;4.80;99.90
25688;DHT22;17407;51.120;3.702;2023-12-04T04:49:56;4.80;99.90
25688;DHT22;17407;51.120;3.702;2023-12-04T04:52:22;4.80;99.90
25688;DHT22;17407;51.120;3.702;2023-12-04T04:54:47;4.80;99.90
25688;DHT22;17407;51.120;3.702;2023-12-04T04:57:13;4.80;99.90
25688;DHT22;17407;51.120;3.702;2023-12-04T04:59:39;4.80;99.90
25688;DHT22;17407;51.120;3.702;2023-12-04T05:02:04;4.80;99.90
25688;DHT22;17407;51.120;3.702;2023-12-04T05:04:30;4.80;99.90
25688;DHT22;17407;51.120;3.702;2023-12-04T05:06:55;4.80;99.90
25688;DHT22;17407;51.120;3.702;2023-12-04T05:09:21;4.90;99.90
25688;DHT22;17407;51.120;3.702;2023-12-04T05:11:47;5.10;99.90
25688;DHT22;17407;51.120;3.702;2023-12-04T05:14:12;5.00;99.90
25688;DHT22;17407;51.120;3.702;2023-12-04T05:16:38;5.00;99.90
25688;DHT22;17407;51.120;3.702;2023-12-04T05:19:04;5.00;99.90
25688;DHT22;17407;51.120;3.702;2023-12-04T05:21:29;5.00;99.90
25688;DHT22;17407;51.120;3.702;2023-12-04T05:23:55;5.10;99.90
25688;DHT22;17407;51.120;3.702;2023-12-04T05:26:21;5.00;99.90
25688;DHT22;17407;51.120;3.702;2023-12-04T05:28:46;4.90;99.90
25688;DHT22;17407;51.120;3.702;2023-12-04T05:31:12;4.90;99.90
25688;DHT22;17407;51.120;3.702;2023-12-04T05:33:38;5.00;99.90
25688;DHT22;17407;51.120;3.702;2023-12-04T05:36:04;5.00;99.90
25688;DHT22;17407;51.120;3.702;2023-12-04T05:38:30;5.00;99.90
25688;DHT22;17407;51.120;3.702;2023-12-04T05:40:55;5.00;99.90
25688;DHT22;17407;51.120;3.702;2023-12-04T05:43:21;5.00;99.90
25688;DHT22;17407;51.120;3.702;2023-12-04T05:45:47;5.00;99.90
25688;DHT22;17407;51.120;3.702;2023-12-04T05:48:12;5.00;99.90
25688;DHT22;17407;51.120;3.702;2023-12-04T05:50:38;5.20;99.90
25688;DHT22;17407;51.120;3.702;2023-12-04T05:53:05;5.00;99.90
25688;DHT22;17407;51.120;3.702;2023-12-04T05:55:31;5.10;99.90
25688;DHT22;17407;51.120;3.702;2023-12-04T05:57:56;5.00;99.90
25688;DHT22;17407;51.120;3.702;2023-12-04T06:00:22;5.10;99.90
25688;DHT22;17407;51.120;3.702;2023-12-04T06:02:48;5.10;99.90
25688;DHT22;17407;51.120;3.702;2023-12-04T06:05:13;5.00;99.90
25688;DHT22;17407;51.120;3.702;2023-12-04T06:07:39;5.20;99.90
25688;DHT22;17407;51.120;3.702;2023-12-04T06:10:05;5.10;99.90
25688;DHT22;17407;51.120;3.702;2023-12-04T06:12:31;5.10;99.90
25688;DHT22;17407;51.120;3.702;2023-12-04T06:14:57;5.20;99.90
25688;DHT22;17407;51.120;3.702;2023-12-04T06:17:24;5.20;99.90
25688;DHT22;17407;51.120;3.702;2023-12-04T06:19:50;5.30;99.90
25688;DHT22;17407;51.120;3.702;2023-12-04T06:22:15;5.10;99.90
25688;DHT22;17407;51.120;3.702;2023-12-04T06:24:44;5.20;99.90
25688;DHT22;17407;51.120;3.702;2023-12-04T06:27:16;5.20;99.90
25688;DHT22;17407;51.120;3.702;2023-12-04T06:29:44;5.20;99.90
25688;DHT22;17407;51.120;3.702;2023-12-04T06:32:10;5.20;99.90
25688;DHT22;17407;51.120;3.702;2023-12-04T06:34:36;5.20;99.90
25688;DHT22;17407;51.120;3.702;2023-12-04T06:37:02;5.20;99.90
25688;DHT22;17407;51.120;3.702;2023-12-04T06:39:32;5.20;99.90
25688;DHT22;17407;51.120;3.702;2023-12-04T06:41:59;5.20;99.90
25688;DHT22;17407;51.120;3.702;2023-12-04T06:44:25;5.20;99.90
25688;DHT22;17407;51.120;3.702;2023-12-04T06:46:52;5.10;99.90
25688;DHT22;17407;51.120;3.702;2023-12-04T06:49:18;5.10;99.90
25688;DHT22;17407;51.120;3.702;2023-12-04T06:51:44;5.10;99.90
25688;DHT22;17407;51.120;3.702;2023-12-04T06:54:10;5.10;99.90
25688;DHT22;17407;51.120;3.702;2023-12-04T06:56:37;5.10;99.90
25688;DHT22;17407;51.120;3.702;2023-12-04T06:59:03;5.10;99.90
25688;DHT22;17407;51.120;3.702;2023-12-04T07:01:29;5.10;99.90
25688;DHT22;17407;51.120;3.702;2023-12-04T07:03:55;5.20;99.90
25688;DHT22;17407;51.120;3.702;2023-12-04T07:06:21;5.30;99.90
25688;DHT22;17407;51.120;3.702;2023-12-04T07:08:46;5.30;99.90
25688;DHT22;17407;51.120;3.702;2023-12-04T07:11:12;5.20;99.90
25688;DHT22;17407;51.120;3.702;2023-12-04T07:13:41;5.20;99.90
25688;DHT22;17407;51.120;3.702;2023-12-04T07:16:07;5.30;99.90
25688;DHT22;17407;51.120;3.702;2023-12-04T07:18:33;5.20;99.90
25688;DHT22;17407;51.120;3.702;2023-12-04T07:20:58;5.10;99.90
25688;DHT22;17407;51.120;3.702;2023-12-04T07:23:24;5.10;99.90
25688;DHT22;17407;51.120;3.702;2023-12-04T07:25:50;5.10;99.90
25688;DHT22;17407;51.120;3.702;2023-12-04T07:28:18;5.10;99.90
25688;DHT22;17407;51.120;3.702;2023-12-04T07:30:43;5.20;99.90
25688;DHT22;17407;51.120;3.702;2023-12-04T07:33:09;5.10;99.90
25688;DHT22;17407;51.120;3.702;2023-12-04T07:35:34;5.00;99.90
25688;DHT22;17407;51.120;3.702;2023-12-04T07:38:00;5.10;99.90
25688;DHT22;17407;51.120;3.702;2023-12-04T07:40:26;5.10;99.90
25688;DHT22;17407;51.120;3.702;2023-12-04T07:42:51;5.20;99.90
25688;DHT22;17407;51.120;3.702;2023-12-04T07:45:17;5.30;99.90
25688;DHT22;17407;51.120;3.702;2023-12-04T07:47:43;5.20;99.90
25688;DHT22;17407;51.120;3.702;2023-12-04T07:50:09;5.20;99.90
25688;DHT22;17407;51.120;3.702;2023-12-04T07:52:35;5.20;99.90
25688;DHT22;17407;51.120;3.702;2023-12-04T07:55:00;5.10;99.90
25688;DHT22;17407;51.120;3.702;2023-12-04T07:57:26;5.20;99.90
25688;DHT22;17407;51.120;3.702;2023-12-04T07:59:51;5.10;99.90
25688;DHT22;17407;51.120;3.702;2023-12-04T08:02:18;5.10;99.90
25688;DHT22;17407;51.120;3.702;2023-12-04T08:04:44;5.20;99.90
25688;DHT22;17407;51.120;3.702;2023-12-04T08:07:09;5.10;99.90
25688;DHT22;17407;51.120;3.702;2023-12-04T08:09:35;5.10;99.90
25688;DHT22;17407;51.120;3.702;2023-12-04T08:12:01;5.30;99.90
25688;DHT22;17407;51.120;3.702;2023-12-04T08:14:26;5.20;99.90
25688;DHT22;17407;51.120;3.702;2023-12-04T08:16:53;5.20;99.90
25688;DHT22;17407;51.120;3.702;2023-12-04T08:19:19;5.10;99.90
25688;DHT22;17407;51.120;3.702;2023-12-04T08:21:45;5.10;99.90
25688;DHT22;17407;51.120;3.702;2023-12-04T08:24:10;5.20;99.90
25688;DHT22;17407;51.120;3.702;2023-12-04T08:26:36;5.20;99.90
25688;DHT22;17407;51.120;3.702;2023-12-04T08:29:01;5.40;99.90
25688;DHT22;17407;51.120;3.702;2023-12-04T08:31:28;5.20;99.90
25688;DHT22;17407;51.120;3.702;2023-12-04T08:34:02;5.20;99.90
25688;DHT22;17407;51.120;3.702;2023-12-04T08:36:38;5.20;99.90
25688;DHT22;17407;51.120;3.702;2023-12-04T08:39:04;5.20;99.90
25688;DHT22;17407;51.120;3.702;2023-12-04T08:41:38;5.00;99.90
25688;DHT22;17407;51.120;3.702;2023-12-04T08:44:10;5.20;99.90
25688;DHT22;17407;51.120;3.702;2023-12-04T08:46:48;5.20;99.90
25688;DHT22;17407;51.120;3.702;2023-12-04T08:49:27;5.20;99.90
25688;DHT22;17407;51.120;3.702;2023-12-04T08:51:59;5.30;99.90
25688;DHT22;17407;51.120;3.702;2023-12-04T08:54:46;5.20;99.90
25688;DHT22;17407;51.120;3.702;2023-12-04T08:57:15;5.30;99.90
25688;DHT22;17407;51.120;3.702;2023-12-04T08:59:43;5.10;99.90
25688;DHT22;17407;51.120;3.702;2023-12-04T09:02:09;5.20;99.90
25688;DHT22;17407;51.120;3.702;2023-12-04T09:04:39;5.30;99.90
25688;DHT22;17407;51.120;3.702;2023-12-04T09:07:18;5.30;99.90
25688;DHT22;17407;51.120;3.702;2023-12-04T09:09:59;5.50;99.90
25688;DHT22;17407;51.120;3.702;2023-12-04T09:12:28;5.40;99.90
25688;DHT22;17407;51.120;3.702;2023-12-04T09:14:53;5.40;99.90
25688;DHT22;17407;51.120;3.702;2023-12-04T09:17:25;5.50;99.90
25688;DHT22;17407;51.120;3.702;2023-12-04T09:19:56;5.40;99.90
25688;DHT22;17407;51.120;3.702;2023-12-04T09:22:28;5.40;99.90
25688;DHT22;17407;51.120;3.702;2023-12-04T09:24:57;5.40;99.90
25688;DHT22;17407;51.120;3.702;2023-12-04T09:27:24;5.40;99.90
25688;DHT22;17407;51.120;3.702;2023-12-04T09:29:50;5.30;99.90
25688;DHT22;17407;51.120;3.702;2023-12-04T09:32:15;5.40;99.90
25688;DHT22;17407;51.120;3.702;2023-12-04T09:34:41;5.50;99.90
25688;DHT22;17407;51.120;3.702;2023-12-04T09:37:07;5.50;99.90
25688;DHT22;17407;51.120;3.702;2023-12-04T09:39:33;5.30;99.90
25688;DHT22;17407;51.120;3.702;2023-12-04T09:41:59;5.50;99.90
25688;DHT22;17407;51.120;3.702;2023-12-04T09:44:28;5.40;99.90
25688;DHT22;17407;51.120;3.702;2023-12-04T09:46:53;5.40;99.90
25688;DHT22;17407;51.120;3.702;2023-12-04T09:49:19;5.50;99.90
25688;DHT22;17407;51.120;3.702;2023-12-04T09:51:45;5.70;99.90
25688;DHT22;17407;51.120;3.702;2023-12-04T09:54:12;5.40;99.90
25688;DHT22;17407;51.120;3.702;2023-12-04T09:56:38;5.50;99.90
25688;DHT22;17407;51.120;3.702;2023-12-04T09:59:05;5.40;99.90
25688;DHT22;17407;51.120;3.702;2023-12-04T10:01:32;5.40;99.90
25688;DHT22;17407;51.120;3.702;2023-12-04T10:03:58;5.40;99.90
25688;DHT22;17407;51.120;3.702;2023-12-04T10:06:28;5.40;99.90
25688;DHT22;17407;51.120;3.702;2023-12-04T10:08:57;5.40;99.90
25688;DHT22;17407;51.120;3.702;2023-12-04T10:11:24;5.30;99.90
25688;DHT22;17407;51.120;3.702;2023-12-04T10:13:51;5.30;99.90
25688;DHT22;17407;51.120;3.702;2023-12-04T10:16:46;5.30;99.90
25688;DHT22;17407;51.120;3.702;2023-12-04T10:21:50;5.40;99.90
25688;DHT22;17407;51.120;3.702;2023-12-04T10:24:35;5.40;99.90
25688;DHT22;17407;51.120;3.702;2023-12-04T10:27:02;5.40;99.90
25688;DHT22;17407;51.120;3.702;2023-12-04T10:29:43;5.30;99.90
25688;DHT22;17407;51.120;3.702;2023-12-04T10:32:12;5.30;99.90
25688;DHT22;17407;51.120;3.702;2023-12-04T10:34:40;5.40;99.90
25688;DHT22;17407;51.120;3.702;2023-12-04T10:37:10;5.30;99.90
25688;DHT22;17407;51.120;3.702;2023-12-04T10:39:48;5.40;99.90
25688;DHT22;17407;51.120;3.702;2023-12-04T10:42:34;5.20;99.90
25688;DHT22;17407;51.120;3.702;2023-12-04T10:45:01;5.20;99.90
25688;DHT22;17407;51.120;3.702;2023-12-04T10:47:28;5.10;99.90
25688;DHT22;17407;51.120;3.702;2023-12-04T10:49:56;5.10;99.90
25688;DHT22;17407;51.120;3.702;2023-12-04T10:52:26;5.10;99.90
25688;DHT22;17407;51.120;3.702;2023-12-04T10:54:53;5.10;99.90
25688;DHT22;17407;51.120;3.702;2023-12-04T10:57:27;5.30;99.90
25688;DHT22;17407;51.120;3.702;2023-12-04T10:59:57;5.30;99.90
25688;DHT22;17407;51.120;3.702;2023-12-04T11:02:29;5.20;99.90
25688;DHT22;17407;51.120;3.702;2023-12-04T11:05:07;5.20;99.90
25688;DHT22;17407;51.120;3.702;2023-12-04T11:07:41;5.20;99.90
25688;DHT22;17407;51.120;3.702;2023-12-04T11:10:09;5.30;99.90
25688;DHT22;17407;51.120;3.702;2023-12-04T11:12:39;5.30;99.90
25688;DHT22;17407;51.120;3.702;2023-12-04T11:15:08;5.10;99.90
25688;DHT22;17407;51.120;3.702;2023-12-04T11:17:36;5.50;99.90
25688;DHT22;17407;51.120;3.702;2023-12-04T11:20:18;5.30;99.90
25688;DHT22;17407;51.120;3.702;2023-12-04T11:22:46;5.30;99.90
25688;DHT22;17407;51.120;3.702;2023-12-04T11:25:14;5.30;99.90
25688;DHT22;17407;51.120;3.702;2023-12-04T11:27:40;5.30;99.90
25688;DHT22;17407;51.120;3.702;2023-12-04T11:30:07;5.20;99.90
25688;DHT22;17407;51.120;3.702;2023-12-04T11:32:44;5.20;99.90
25688;DHT22;17407;51.120;3.702;2023-12-04T11:35:13;5.30;99.90
25688;DHT22;17407;51.120;3.702;2023-12-04T11:37:41;5.20;99.90
25688;DHT22;17407;51.120;3.702;2023-12-04T11:40:11;5.20;99.90
25688;DHT22;17407;51.120;3.702;2023-12-04T11:42:37;5.20;99.90
25688;DHT22;17407;51.120;3.702;2023-12-04T11:45:05;5.20;99.90
25688;DHT22;17407;51.120;3.702;2023-12-04T11:47:48;5.10;99.90
25688;DHT22;17407;51.120;3.702;2023-12-04T11:50:14;5.20;99.90
25688;DHT22;17407;51.120;3.702;2023-12-04T11:52:39;5.20;99.90
25688;DHT22;17407;51.120;3.702;2023-12-04T11:55:05;5.30;99.90
25688;DHT22;17407;51.120;3.702;2023-12-04T11:57:35;5.30;99.90
25688;DHT22;17407;51.120;3.702;2023-12-04T12:03:00;5.20;99.90
25688;DHT22;17407;51.120;3.702;2023-12-04T12:05:27;5.20;99.90
25688;DHT22;17407;51.120;3.702;2023-12-04T12:07:54;5.20;99.90
25688;DHT22;17407;51.120;3.702;2023-12-04T12:10:21;5.30;99.90
25688;DHT22;17407;51.120;3.702;2023-12-04T12:12:47;5.30;99.90
25688;DHT22;17407;51.120;3.702;2023-12-04T12:15:13;5.20;99.90
25688;DHT22;17407;51.120;3.702;2023-12-04T12:17:40;5.30;99.90
25688;DHT22;17407;51.120;3.702;2023-12-04T12:20:10;5.50;99.90
25688;DHT22;17407;51.120;3.702;2023-12-04T12:22:37;5.30;99.90
25688;DHT22;17407;51.120;3.702;2023-12-04T12:25:07;5.30;99.90
25688;DHT22;17407;51.120;3.702;2023-12-04T12:27:34;5.30;99.90
25688;DHT22;17407;51.120;3.702;2023-12-04T12:30:00;5.40;99.90
25688;DHT22;17407;51.120;3.702;2023-12-04T12:32:26;5.40;99.90
25688;DHT22;17407;51.120;3.702;2023-12-04T12:34:55;5.40;99.90
25688;DHT22;17407;51.120;3.702;2023-12-04T12:37:21;5.30;99.90
25688;DHT22;17407;51.120;3.702;2023-12-04T12:39:47;5.40;99.90
25688;DHT22;17407;51.120;3.702;2023-12-04T12:42:29;5.40;99.90
25688;DHT22;17407;51.120;3.702;2023-12-04T12:44:58;5.40;99.90
25688;DHT22;17407;51.120;3.702;2023-12-04T12:47:25;5.50;99.90
25688;DHT22;17407;51.120;3.702;2023-12-04T12:49:52;5.50;99.90
25688;DHT22;17407;51.120;3.702;2023-12-04T12:52:19;5.50;99.90
25688;DHT22;17407;51.120;3.702;2023-12-04T12:54:45;5.50;99.90
25688;DHT22;17407;51.120;3.702;2023-12-04T12:57:11;5.60;99.90
25688;DHT22;17407;51.120;3.702;2023-12-04T12:59:40;5.70;99.90
25688;DHT22;17407;51.120;3.702;2023-12-04T13:02:06;5.60;99.90
25688;DHT22;17407;51.120;3.702;2023-12-04T13:04:40;5.60;99.90
25688;DHT22;17407;51.120;3.702;2023-12-04T13:07:06;5.70;99.90
25688;DHT22;17407;51.120;3.702;2023-12-04T13:09:35;5.70;99.90
25688;DHT22;17407;51.120;3.702;2023-12-04T13:12:01;5.60;99.90
25688;DHT22;17407;51.120;3.702;2023-12-04T13:14:27;5.80;99.90
25688;DHT22;17407;51.120;3.702;2023-12-04T13:16:53;5.70;99.90
25688;DHT22;17407;51.120;3.702;2023-12-04T13:19:20;5.80;99.90
25688;DHT22;17407;51.120;3.702;2023-12-04T13:21:46;5.80;99.90
25688;DHT22;17407;51.120;3.702;2023-12-04T13:24:12;5.70;99.90
25688;DHT22;17407;51.120;3.702;2023-12-04T13:26:38;5.80;99.90
25688;DHT22;17407;51.120;3.702;2023-12-04T13:29:04;5.70;99.90
25688;DHT22;17407;51.120;3.702;2023-12-04T13:31:32;6.00;99.90
25688;DHT22;17407;51.120;3.702;2023-12-04T13:33:58;5.80;99.90
25688;DHT22;17407;51.120;3.702;2023-12-04T13:36:24;5.80;99.90
25688;DHT22;17407;51.120;3.702;2023-12-04T13:38:50;5.70;99.90
25688;DHT22;17407;51.120;3.702;2023-12-04T13:41:16;5.70;99.90
25688;DHT22;17407;51.120;3.702;2023-12-04T13:44:01;5.90;99.90
25688;DHT22;17407;51.120;3.702;2023-12-04T13:46:28;5.90;99.90
25688;DHT22;17407;51.120;3.702;2023-12-04T13:48:58;5.80;99.90
25688;DHT22;17407;51.120;3.702;2023-12-04T13:51:24;5.70;99.90
25688;DHT22;17407;51.120;3.702;2023-12-04T13:53:51;5.80;99.90
25688;DHT22;17407;51.120;3.702;2023-12-04T13:56:22;5.90;99.90
25688;DHT22;17407;51.120;3.702;2023-12-04T13:59:07;5.80;99.90
25688;DHT22;17407;51.120;3.702;2023-12-04T14:01:33;5.80;99.90
25688;DHT22;17407;51.120;3.702;2023-12-04T14:03:59;5.70;99.90
25688;DHT22;17407;51.120;3.702;2023-12-04T14:06:31;5.80;99.90
25688;DHT22;17407;51.120;3.702;2023-12-04T14:08:57;5.70;99.90
25688;DHT22;17407;51.120;3.702;2023-12-04T14:11:23;5.70;99.90
25688;DHT22;17407;51.120;3.702;2023-12-04T14:13:49;5.70;99.90
25688;DHT22;17407;51.120;3.702;2023-12-04T14:16:15;5.70;99.90
25688;DHT22;17407;51.120;3.702;2023-12-04T14:18:41;5.80;99.90
25688;DHT22;17407;51.120;3.702;2023-12-04T14:21:08;5.80;99.90
25688;DHT22;17407;51.120;3.702;2023-12-04T14:23:34;5.70;99.90
25688;DHT22;17407;51.120;3.702;2023-12-04T14:26:00;5.90;99.90
25688;DHT22;17407;51.120;3.702;2023-12-04T14:28:27;5.90;99.90
25688;DHT22;17407;51.120;3.702;2023-12-04T14:30:53;5.80;99.90
25688;DHT22;17407;51.120;3.702;2023-12-04T14:33:20;5.80;99.90
25688;DHT22;17407;51.120;3.702;2023-12-04T14:35:45;5.80;99.90
25688;DHT22;17407;51.120;3.702;2023-12-04T14:38:14;5.70;99.90
25688;DHT22;17407;51.120;3.702;2023-12-04T14:40:40;5.70;99.90
25688;DHT22;17407;51.120;3.702;2023-12-04T14:43:06;5.70;99.90
25688;DHT22;17407;51.120;3.702;2023-12-04T14:45:35;5.70;99.90
25688;DHT22;17407;51.120;3.702;2023-12-04T14:48:02;5.70;99.90
25688;DHT22;17407;51.120;3.702;2023-12-04T14:50:27;5.70;99.90
25688;DHT22;17407;51.120;3.702;2023-12-04T14:52:53;5.80;99.90
25688;DHT22;17407;51.120;3.702;2023-12-04T14:55:21;5.70;99.90
25688;DHT22;17407;51.120;3.702;2023-12-04T14:57:52;5.60;99.90
25688;DHT22;17407;51.120;3.702;2023-12-04T15:00:27;5.80;99.90
25688;DHT22;17407;51.120;3.702;2023-12-04T15:03:27;5.60;99.90
25688;DHT22;17407;51.120;3.702;2023-12-04T15:06:12;5.70;99.90
25688;DHT22;17407;51.120;3.702;2023-12-04T15:08:37;5.70;99.90
25688;DHT22;17407;51.120;3.702;2023-12-04T15:11:06;5.70;99.90
25688;DHT22;17407;51.120;3.702;2023-12-04T15:13:50;5.60;99.90
25688;DHT22;17407;51.120;3.702;2023-12-04T15:16:34;5.80;99.90
25688;DHT22;17407;51.120;3.702;2023-12-04T15:19:00;5.70;99.90
25688;DHT22;17407;51.120;3.702;2023-12-04T15:21:31;5.70;99.90
25688;DHT22;17407;51.120;3.702;2023-12-04T15:23:57;5.70;99.90
25688;DHT22;17407;51.120;3.702;2023-12-04T15:26:23;5.70;99.90
25688;DHT22;17407;51.120;3.702;2023-12-04T15:28:48;5.60;99.90
25688;DHT22;17407;51.120;3.702;2023-12-04T15:31:14;5.70;99.90
25688;DHT22;17407;51.120;3.702;2023-12-04T15:33:40;5.70;99.90
25688;DHT22;17407;51.120;3.702;2023-12-04T15:36:06;5.60;99.90
25688;DHT22;17407;51.120;3.702;2023-12-04T15:38:34;5.60;99.90
25688;DHT22;17407;51.120;3.702;2023-12-04T15:41:00;5.70;99.90
25688;DHT22;17407;51.120;3.702;2023-12-04T15:43:26;5.60;99.90
25688;DHT22;17407;51.120;3.702;2023-12-04T15:45:51;5.60;99.90
25688;DHT22;17407;51.120;3.702;2023-12-04T15:48:17;5.70;99.90
25688;DHT22;17407;51.120;3.702;2023-12-04T15:50:43;5.60;99.90